createdAt,value
2023-05-06T00:00:41.577Z,12.20
2023-05-06T00:06:11.066Z,12.20
2023-05-06T00:11:39.140Z,12.20
2023-05-06T00:17:07.572Z,12.20
2023-05-06T00:22:35.657Z,12.20
2023-05-06T00:28:03.862Z,12.20
2023-05-06T00:33:32.017Z,12.20
2023-05-06T00:39:00.128Z,12.20
2023-05-06T00:44:28.700Z,12.20
2023-05-06T00:49:57.115Z,12.20
2023-05-06T00:55:26.264Z,12.10
2023-05-06T01:00:55.446Z,12.10
2023-05-06T01:06:38.265Z,12.00
2023-05-06T01:12:38.588Z,11.90
2023-05-06T01:18:11.488Z,11.90
2023-05-06T01:23:58.600Z,11.90
2023-05-06T01:29:27.379Z,11.80
2023-05-06T01:35:34.379Z,11.70
2023-05-06T01:41:02.939Z,11.70
2023-05-06T01:46:33.000Z,11.70
2023-05-06T01:52:03.052Z,11.60
2023-05-06T01:57:31.531Z,11.60
2023-05-06T02:03:01.035Z,11.60
2023-05-06T02:08:29.833Z,11.60
2023-05-06T02:13:58.467Z,11.50
2023-05-06T02:19:26.782Z,11.60
2023-05-06T02:24:54.979Z,11.60
2023-05-06T02:30:23.162Z,11.50
2023-05-06T02:35:51.812Z,11.50
2023-05-06T02:41:19.977Z,11.40
2023-05-06T02:46:48.324Z,11.40
2023-05-06T02:52:16.416Z,11.40
2023-05-06T02:57:44.636Z,11.40
2023-05-06T03:03:12.889Z,11.30
2023-05-06T03:08:41.092Z,11.20
2023-05-06T03:14:09.655Z,11.20
2023-05-06T03:19:41.331Z,11.20
2023-05-06T03:25:11.374Z,11.20
2023-05-06T03:30:41.841Z,11.10
2023-05-06T03:36:12.099Z,11.10
2023-05-06T03:41:40.529Z,11.10
2023-05-06T03:47:09.431Z,11.10
2023-05-06T03:52:38.841Z,11.10
2023-05-06T03:58:07.492Z,11.10
2023-05-06T04:03:35.996Z,11.10
2023-05-06T04:09:06.433Z,11.10
2023-05-06T04:14:37.385Z,11.00
2023-05-06T04:20:07.338Z,11.10
2023-05-06T04:25:37.908Z,11.10
2023-05-06T04:31:08.714Z,11.10
2023-05-06T04:36:43.449Z,11.10
2023-05-06T04:42:23.148Z,11.10
2023-05-06T04:48:01.437Z,11.10
2023-05-06T04:53:31.097Z,11.20
2023-05-06T04:59:00.010Z,11.30
2023-05-06T05:04:29.606Z,11.30
2023-05-06T05:09:58.367Z,11.40
2023-05-06T05:15:27.033Z,11.50
2023-05-06T05:20:55.967Z,11.50
2023-05-06T05:26:24.786Z,11.60
2023-05-06T05:31:55.209Z,11.60
2023-05-06T05:37:24.218Z,11.70
2023-05-06T05:42:52.732Z,11.70
2023-05-06T05:48:29.220Z,11.70
2023-05-06T05:53:58.353Z,11.80
2023-05-06T05:59:28.844Z,11.80
2023-05-06T06:05:01.726Z,11.90
2023-05-06T06:10:31.431Z,12.00
2023-05-06T06:16:02.610Z,12.10
2023-05-06T06:21:31.203Z,12.20
2023-05-06T06:27:00.020Z,12.30
2023-05-06T06:32:55.909Z,12.40
2023-05-06T06:38:27.300Z,12.40
2023-05-06T06:43:55.880Z,12.50
2023-05-06T06:49:31.326Z,12.60
2023-05-06T06:55:03.513Z,12.70
2023-05-06T07:00:31.954Z,12.70
2023-05-06T07:06:00.346Z,12.80
2023-05-06T07:11:28.543Z,12.90
2023-05-06T07:17:00.920Z,13.00
2023-05-06T07:22:29.620Z,13.20
2023-05-06T07:27:57.881Z,13.40
2023-05-06T07:33:26.026Z,13.60
2023-05-06T07:38:55.394Z,13.80
2023-05-06T07:44:30.309Z,14.00
2023-05-06T07:50:08.183Z,14.30
2023-05-06T07:55:37.742Z,14.50
2023-05-06T08:01:09.126Z,14.70
2023-05-06T08:06:40.503Z,14.90
2023-05-06T08:12:08.732Z,15.00
2023-05-06T08:17:38.855Z,15.00
2023-05-06T08:23:06.946Z,15.10
2023-05-06T08:28:35.105Z,15.30
2023-05-06T08:34:03.208Z,15.40
2023-05-06T08:39:31.577Z,15.50
2023-05-06T08:45:00.737Z,15.70
2023-05-06T08:50:29.285Z,15.80
2023-05-06T08:56:04.220Z,15.90
2023-05-06T09:01:32.356Z,16.10
2023-05-06T09:07:00.659Z,16.30
2023-05-06T09:12:37.081Z,16.30
2023-05-06T09:18:09.069Z,16.30
2023-05-06T09:23:43.818Z,16.50
2023-05-06T09:29:16.209Z,16.50
2023-05-06T09:34:46.491Z,16.50
2023-05-06T09:40:14.755Z,16.60
2023-05-06T09:45:43.356Z,16.50
2023-05-06T09:51:11.890Z,16.60
2023-05-06T09:56:40.171Z,17.10
2023-05-06T10:02:08.730Z,17.20
2023-05-06T10:07:39.544Z,17.50
2023-05-06T10:13:09.239Z,17.50
2023-05-06T10:18:39.072Z,17.50
2023-05-06T10:24:11.544Z,17.80
2023-05-06T10:29:41.078Z,18.10
2023-05-06T10:35:39.024Z,18.00
2023-05-06T10:41:09.179Z,18.30
2023-05-06T10:47:02.905Z,18.70
2023-05-06T10:52:55.758Z,19.20
2023-05-06T10:58:24.000Z,19.60
2023-05-06T11:03:52.930Z,19.70
2023-05-06T11:09:27.183Z,19.70
2023-05-06T11:14:55.829Z,19.40
2023-05-06T11:20:26.792Z,19.20
2023-05-06T11:26:00.102Z,19.10
2023-05-06T11:31:31.123Z,19.10
2023-05-06T11:37:07.970Z,19.40
2023-05-06T11:42:36.322Z,19.70
2023-05-06T11:48:08.776Z,19.70
2023-05-06T11:53:40.010Z,19.80
2023-05-06T11:59:08.610Z,19.90
2023-05-06T12:04:39.003Z,19.90
2023-05-06T12:10:10.362Z,19.60
2023-05-06T12:15:39.917Z,19.60
2023-05-06T12:21:08.174Z,20.00
2023-05-06T12:26:48.867Z,20.40
2023-05-06T12:32:18.065Z,20.80
2023-05-06T12:37:47.367Z,21.00
2023-05-06T12:43:15.565Z,21.10
2023-05-06T12:49:03.436Z,20.90
2023-05-06T12:54:32.853Z,20.70
2023-05-06T13:00:01.119Z,20.50
2023-05-06T13:05:29.283Z,20.50
2023-05-06T13:10:57.589Z,20.30
2023-05-06T13:16:26.492Z,20.30
2023-05-06T13:21:55.419Z,20.60
2023-05-06T13:27:24.648Z,21.00
2023-05-06T13:32:52.945Z,20.80
2023-05-06T13:38:22.037Z,20.90
2023-05-06T13:43:52.939Z,21.20
2023-05-06T13:49:21.064Z,21.60
2023-05-06T13:54:49.633Z,21.50
2023-05-06T14:00:17.824Z,21.20
2023-05-06T14:05:48.138Z,21.40
2023-05-06T14:11:16.544Z,21.40
2023-05-06T14:16:44.730Z,21.10
2023-05-06T14:22:12.971Z,20.80
2023-05-06T14:27:41.175Z,20.40
2023-05-06T14:33:14.007Z,20.30
2023-05-06T14:38:42.111Z,20.20
2023-05-06T14:44:13.155Z,20.60
2023-05-06T14:49:41.332Z,20.70
2023-05-06T14:55:11.127Z,20.50
2023-05-06T15:00:39.550Z,20.40
2023-05-06T15:06:07.805Z,20.50
2023-05-06T15:11:36.042Z,20.70
2023-05-06T15:17:04.380Z,21.00
2023-05-06T15:22:32.493Z,20.80
2023-05-06T15:28:00.706Z,20.60
2023-05-06T15:33:28.820Z,20.40
2023-05-06T15:39:00.345Z,20.20
2023-05-06T15:44:28.963Z,20.00
2023-05-06T15:49:59.613Z,19.80
2023-05-06T15:55:28.809Z,19.60
2023-05-06T16:00:57.198Z,19.60
2023-05-06T16:06:25.917Z,19.50
2023-05-06T16:11:57.314Z,19.50
2023-05-06T16:17:25.974Z,19.40
2023-05-06T16:22:58.201Z,19.20
2023-05-06T16:28:27.831Z,19.10
2023-05-06T16:33:56.534Z,19.10
2023-05-06T16:39:24.886Z,19.10
2023-05-06T16:44:53.105Z,19.10
2023-05-06T16:50:20.884Z,19.40
2023-05-06T16:55:49.913Z,19.40
2023-05-06T17:01:18.155Z,19.30
2023-05-06T17:06:46.352Z,19.20
2023-05-06T17:12:14.690Z,19.20
2023-05-06T17:17:42.828Z,19.10
2023-05-06T17:23:10.996Z,19.10
2023-05-06T17:28:39.149Z,19.10
2023-05-06T17:34:07.638Z,19.00
2023-05-06T17:39:36.419Z,18.90
2023-05-06T17:45:04.948Z,18.80
2023-05-06T17:50:32.706Z,18.70
2023-05-06T17:56:01.013Z,18.60
2023-05-06T18:01:29.490Z,18.50
2023-05-06T18:06:58.671Z,18.40
2023-05-06T18:12:28.621Z,18.20
2023-05-06T18:17:57.030Z,18.10
2023-05-06T18:23:26.403Z,18.00
2023-05-06T18:28:54.575Z,17.80
2023-05-06T18:34:22.642Z,17.60
2023-05-06T18:39:50.866Z,17.50
2023-05-06T18:45:18.983Z,17.30
2023-05-06T18:50:47.153Z,17.20
2023-05-06T18:56:15.198Z,17.00
2023-05-06T19:01:43.266Z,16.90
2023-05-06T19:07:11.981Z,16.70
2023-05-06T19:12:42.002Z,16.60
2023-05-06T19:18:12.700Z,16.40
2023-05-06T19:23:41.362Z,16.30
2023-05-06T19:29:09.564Z,16.10
2023-05-06T19:34:39.248Z,16.00
2023-05-06T19:40:09.094Z,15.80
2023-05-06T19:45:37.449Z,15.70
2023-05-06T19:51:06.828Z,15.60
2023-05-06T19:56:35.680Z,15.40
2023-05-06T20:02:04.192Z,15.30
2023-05-06T20:07:36.048Z,15.20
2023-05-06T20:13:05.337Z,15.10
2023-05-06T20:18:34.840Z,15.00
2023-05-06T20:24:03.267Z,14.90
2023-05-06T20:29:32.773Z,14.90
2023-05-06T20:35:01.172Z,14.80
2023-05-06T20:46:22.563Z,14.60
2023-05-06T20:51:51.009Z,14.60
2023-05-06T20:57:19.983Z,14.50
2023-05-06T21:02:49.466Z,14.40
2023-05-06T21:08:26.665Z,14.40
2023-05-06T21:13:55.087Z,14.30
2023-05-06T21:19:24.547Z,14.30
2023-05-06T21:24:53.885Z,14.20
2023-05-06T21:30:22.434Z,14.10
2023-05-06T21:35:50.821Z,14.00
2023-05-06T21:41:18.895Z,13.90
2023-05-06T21:46:48.247Z,13.80
2023-05-06T21:52:16.440Z,13.70
2023-05-06T21:57:45.291Z,13.70
2023-05-06T22:03:15.421Z,13.60
2023-05-06T22:08:43.902Z,13.50
2023-05-06T22:14:40.939Z,13.40
2023-05-06T22:20:27.757Z,13.30
2023-05-06T22:26:00.406Z,13.30
2023-05-06T22:31:47.025Z,13.20
2023-05-06T22:37:16.355Z,13.10
2023-05-06T22:42:50.472Z,13.00
2023-05-06T22:48:18.697Z,13.00
2023-05-06T22:53:47.629Z,12.90
2023-05-06T23:00:01.274Z,12.80
2023-05-06T23:11:38.267Z,12.70
2023-05-06T23:17:07.424Z,12.60
2023-05-06T23:22:51.989Z,12.60
2023-05-06T23:28:22.492Z,12.50
2023-05-06T23:46:03.610Z,12.30
2023-05-06T23:53:32.470Z,12.30
